createdAt,value
2018-11-25T00:01:27.665Z,5.63
2018-11-25T00:03:56.071Z,4.07
2018-11-25T00:06:24.168Z,3.37
2018-11-25T00:08:52.822Z,4.70
2018-11-25T00:11:21.193Z,4.13
2018-11-25T00:13:49.593Z,6.77
2018-11-25T00:16:17.987Z,5.87
2018-11-25T00:18:46.369Z,7.77
2018-11-25T00:21:14.760Z,3.60
2018-11-25T00:23:43.197Z,3.10
2018-11-25T00:26:11.285Z,4.40
2018-11-25T00:28:39.689Z,4.73
2018-11-25T00:31:09.646Z,3.97
2018-11-25T00:33:36.499Z,4.40
2018-11-25T00:36:04.882Z,5.50
2018-11-25T00:38:33.271Z,5.60
2018-11-25T00:41:01.646Z,3.27
2018-11-25T00:43:30.201Z,6.27
2018-11-25T00:45:58.576Z,3.63
2018-11-25T00:48:26.670Z,3.27
2018-11-25T00:50:55.040Z,2.87
2018-11-25T00:53:23.459Z,2.77
2018-11-25T00:55:51.828Z,3.37
2018-11-25T00:58:20.217Z,3.27
2018-11-25T01:00:48.597Z,2.77
2018-11-25T01:03:17.242Z,2.40
2018-11-25T01:05:45.606Z,2.93
2018-11-25T01:08:14.018Z,2.97
2018-11-25T01:10:42.421Z,2.50
2018-11-25T01:13:10.529Z,2.93
2018-11-25T01:15:38.903Z,2.53
2018-11-25T01:18:07.325Z,2.40
2018-11-25T01:20:35.693Z,3.60
2018-11-25T01:23:04.104Z,2.70
2018-11-25T01:25:32.480Z,4.60
2018-11-25T01:28:00.864Z,2.53
2018-11-25T01:30:29.036Z,2.63
2018-11-25T01:32:57.416Z,3.73
2018-11-25T01:35:25.796Z,2.27
2018-11-25T01:37:54.168Z,1.80
2018-11-25T01:40:22.547Z,1.70
2018-11-25T01:42:51.114Z,2.03
2018-11-25T01:45:19.508Z,2.10
2018-11-25T01:47:47.868Z,2.20
2018-11-25T01:50:17.062Z,2.57
2018-11-25T01:52:45.314Z,2.30
2018-11-25T01:55:15.000Z,1.60
2018-11-25T01:57:43.393Z,2.63
2018-11-25T02:00:14.957Z,1.97
2018-11-25T02:02:43.441Z,2.70
2018-11-25T02:05:11.836Z,1.90
2018-11-25T02:07:40.236Z,1.80
2018-11-25T02:10:13.841Z,4.47
2018-11-25T02:12:42.253Z,2.73
2018-11-25T02:15:11.869Z,4.43
2018-11-25T02:17:40.393Z,6.00
2018-11-25T02:20:10.748Z,2.80
2018-11-25T02:22:39.177Z,3.47
2018-11-25T02:25:07.645Z,2.53
2018-11-25T02:27:36.049Z,3.30
2018-11-25T02:30:05.417Z,3.60
2018-11-25T02:32:33.785Z,3.73
2018-11-25T02:35:02.187Z,2.90
2018-11-25T02:37:30.573Z,3.13
2018-11-25T02:39:58.980Z,3.63
2018-11-25T02:42:27.350Z,3.33
2018-11-25T02:44:55.734Z,3.67
2018-11-25T02:47:24.107Z,3.43
2018-11-25T02:49:52.492Z,2.83
2018-11-25T02:52:20.881Z,2.37
2018-11-25T02:54:49.292Z,3.87
2018-11-25T02:57:21.868Z,3.00
2018-11-25T02:59:50.353Z,4.07
2018-11-25T03:02:18.705Z,3.53
2018-11-25T03:04:47.105Z,6.50
2018-11-25T03:07:15.486Z,2.07
2018-11-25T03:09:43.873Z,3.10
2018-11-25T03:12:12.470Z,2.67
2018-11-25T03:14:40.901Z,3.57
2018-11-25T03:17:09.270Z,5.77
2018-11-25T03:19:37.661Z,6.17
2018-11-25T03:22:05.761Z,4.40
2018-11-25T03:24:34.150Z,3.47
2018-11-25T03:27:02.540Z,4.63
2018-11-25T03:29:30.945Z,2.23
2018-11-25T03:31:59.340Z,4.47
2018-11-25T03:34:27.733Z,3.50
2018-11-25T03:36:56.093Z,3.30
2018-11-25T03:39:24.653Z,3.47
2018-11-25T03:41:53.049Z,3.27
2018-11-25T03:44:21.451Z,3.93
2018-11-25T03:46:49.840Z,5.50
2018-11-25T03:49:18.230Z,4.20
2018-11-25T03:51:46.602Z,7.13
2018-11-25T03:54:14.986Z,3.47
2018-11-25T03:56:43.357Z,2.47
2018-11-25T03:59:11.765Z,4.33
2018-11-25T04:01:40.152Z,4.60
2018-11-25T04:04:08.293Z,5.33
2018-11-25T04:06:36.700Z,4.43
2018-11-25T04:09:07.053Z,3.97
2018-11-25T04:11:35.536Z,3.63
2018-11-25T04:14:04.009Z,3.00
2018-11-25T04:16:32.375Z,4.83
2018-11-25T04:19:00.753Z,3.77
2018-11-25T04:21:29.146Z,3.93
2018-11-25T04:23:57.569Z,4.10
2018-11-25T04:26:25.960Z,8.67
2018-11-25T04:28:54.350Z,3.43
2018-11-25T04:31:22.733Z,6.33
2018-11-25T04:33:51.089Z,4.97
2018-11-25T04:36:19.477Z,2.83
2018-11-25T04:38:47.834Z,8.00
2018-11-25T04:41:16.224Z,4.97
2018-11-25T04:43:44.621Z,3.40
2018-11-25T04:46:12.998Z,3.27
2018-11-25T04:48:41.392Z,3.27
2018-11-25T04:51:09.785Z,4.10
2018-11-25T04:53:38.189Z,3.47
2018-11-25T04:56:06.701Z,3.50
2018-11-25T04:58:35.072Z,3.87
2018-11-25T05:01:03.470Z,7.97
2018-11-25T05:03:31.845Z,4.47
2018-11-25T05:06:00.225Z,3.63
2018-11-25T05:08:28.592Z,5.27
2018-11-25T05:10:56.988Z,3.50
2018-11-25T05:13:25.363Z,3.60
2018-11-25T05:15:53.742Z,5.63
2018-11-25T05:18:22.110Z,6.43
2018-11-25T05:20:50.486Z,7.20
2018-11-25T05:23:18.866Z,3.03
2018-11-25T05:25:47.247Z,8.10
2018-11-25T05:28:15.643Z,5.40
2018-11-25T05:30:44.023Z,3.80
2018-11-25T05:33:12.421Z,3.37
2018-11-25T05:35:40.804Z,4.33
2018-11-25T05:38:09.190Z,3.53
2018-11-25T05:40:37.592Z,4.13
2018-11-25T05:43:05.964Z,3.10
2018-11-25T05:45:34.348Z,4.27
2018-11-25T05:48:02.730Z,4.00
2018-11-25T05:50:31.133Z,3.93
2018-11-25T05:52:59.503Z,4.37
2018-11-25T05:55:28.072Z,3.67
2018-11-25T05:57:56.453Z,17.20
2018-11-25T06:00:32.937Z,4.73
2018-11-25T06:03:01.782Z,5.30
2018-11-25T06:05:30.210Z,3.67
2018-11-25T06:07:58.593Z,6.53
2018-11-25T06:10:26.975Z,4.40
2018-11-25T06:12:55.353Z,9.50
2018-11-25T06:15:23.786Z,6.57
2018-11-25T06:17:52.158Z,7.77
2018-11-25T06:20:20.546Z,10.57
2018-11-25T06:22:49.033Z,8.07
2018-11-25T06:25:18.707Z,4.73
2018-11-25T06:27:47.093Z,5.53
2018-11-25T06:30:16.495Z,5.37
2018-11-25T06:32:44.921Z,16.90
2018-11-25T06:35:14.472Z,8.83
2018-11-25T06:37:42.877Z,19.10
2018-11-25T06:40:12.570Z,13.70
2018-11-25T06:42:40.965Z,14.60
2018-11-25T06:45:17.988Z,14.90
2018-11-25T06:47:46.378Z,8.30
2018-11-25T06:50:14.804Z,15.43
2018-11-25T06:52:43.265Z,12.80
2018-11-25T06:55:12.653Z,10.87
2018-11-25T06:57:41.064Z,39.17
2018-11-25T07:00:24.408Z,10.10
2018-11-25T07:02:52.820Z,14.57
2018-11-25T07:05:21.225Z,7.20
2018-11-25T07:07:49.620Z,7.50
2018-11-25T07:10:19.204Z,5.93
2018-11-25T07:12:48.656Z,12.77
2018-11-25T07:15:17.814Z,10.67
2018-11-25T07:17:46.305Z,6.87
2018-11-25T07:20:14.871Z,7.80
2018-11-25T07:22:43.258Z,5.57
2018-11-25T07:25:20.505Z,6.07
2018-11-25T07:27:48.919Z,5.17
2018-11-25T07:30:22.464Z,16.90
2018-11-25T07:32:50.835Z,4.60
2018-11-25T07:35:19.214Z,8.67
2018-11-25T07:37:47.589Z,7.77
2018-11-25T07:40:17.314Z,6.50
2018-11-25T07:42:45.415Z,10.73
2018-11-25T07:45:15.089Z,7.03
2018-11-25T07:47:43.466Z,18.73
2018-11-25T07:50:12.903Z,3.47
2018-11-25T07:52:42.113Z,17.57
2018-11-25T07:55:13.765Z,15.70
2018-11-25T07:57:42.335Z,17.27
2018-11-25T08:00:13.322Z,8.93
2018-11-25T08:02:41.833Z,14.40
2018-11-25T08:05:11.393Z,6.57
2018-11-25T08:07:39.817Z,13.57
2018-11-25T08:10:10.504Z,10.37
2018-11-25T08:12:39.087Z,7.97
2018-11-25T08:15:09.424Z,22.57
2018-11-25T08:17:38.071Z,5.33
2018-11-25T08:20:08.374Z,18.77
2018-11-25T08:22:36.792Z,16.53
2018-11-25T08:25:07.508Z,24.37
2018-11-25T08:27:35.928Z,8.80
2018-11-25T08:30:06.344Z,7.07
2018-11-25T08:32:34.840Z,20.57
2018-11-25T08:35:03.278Z,15.20
2018-11-25T08:37:31.709Z,23.33
2018-11-25T08:40:00.245Z,13.47
2018-11-25T08:42:28.646Z,20.07
2018-11-25T08:44:57.021Z,19.47
2018-11-25T08:47:25.418Z,15.43
2018-11-25T08:49:53.898Z,21.97
2018-11-25T08:52:22.290Z,18.23
2018-11-25T08:54:50.677Z,19.30
2018-11-25T08:57:19.092Z,21.43
2018-11-25T08:59:47.597Z,14.07
2018-11-25T09:02:15.736Z,24.93
2018-11-25T09:04:44.132Z,17.30
2018-11-25T09:07:12.581Z,33.87
2018-11-25T09:09:40.949Z,9.77
2018-11-25T09:12:09.032Z,8.80
2018-11-25T09:14:37.400Z,15.67
2018-11-25T09:17:06.786Z,16.97
2018-11-25T09:19:35.177Z,16.97
2018-11-25T09:22:03.577Z,12.47
2018-11-25T09:24:31.955Z,28.27
2018-11-25T09:27:00.363Z,11.93
2018-11-25T09:29:28.758Z,20.40
2018-11-25T09:31:57.181Z,35.93
2018-11-25T09:34:25.557Z,29.50
2018-11-25T09:36:53.950Z,13.33
2018-11-25T09:39:22.328Z,21.97
2018-11-25T09:41:50.744Z,30.00
2018-11-25T09:44:19.125Z,22.60
2018-11-25T09:46:47.505Z,28.47
2018-11-25T09:49:15.884Z,19.73
2018-11-25T09:51:44.273Z,38.77
2018-11-25T09:54:12.636Z,15.57
2018-11-25T09:56:41.038Z,27.57
2018-11-25T09:59:09.402Z,15.93
2018-11-25T10:01:37.805Z,21.13
2018-11-25T10:04:06.450Z,16.60
2018-11-25T10:06:34.882Z,41.53
2018-11-25T10:09:03.360Z,21.67
2018-11-25T10:11:31.769Z,37.90
2018-11-25T10:14:00.146Z,19.50
2018-11-25T10:16:28.540Z,27.47
2018-11-25T10:18:56.977Z,19.70
2018-11-25T10:21:25.349Z,19.33
2018-11-25T10:23:53.729Z,12.83
2018-11-25T10:26:22.108Z,29.60
2018-11-25T10:28:50.584Z,12.90
2018-11-25T10:31:19.009Z,25.80
2018-11-25T10:33:47.089Z,14.73
2018-11-25T10:36:15.452Z,32.33
2018-11-25T10:38:44.038Z,9.10
2018-11-25T10:41:12.450Z,14.27
2018-11-25T10:43:41.041Z,14.60
2018-11-25T10:46:09.439Z,15.50
2018-11-25T10:48:37.805Z,34.17
2018-11-25T10:51:06.297Z,9.73
2018-11-25T10:53:34.969Z,30.70
2018-11-25T10:56:03.359Z,17.70
2018-11-25T10:58:31.768Z,12.93
2018-11-25T11:01:05.422Z,25.13
2018-11-25T11:03:39.077Z,22.40
2018-11-25T11:06:12.776Z,15.23
2018-11-25T11:08:41.153Z,10.43
2018-11-25T11:11:09.525Z,17.20
2018-11-25T11:13:38.081Z,14.00
2018-11-25T11:16:06.511Z,16.00
2018-11-25T11:18:34.927Z,21.00
2018-11-25T11:21:03.309Z,14.40
2018-11-25T11:23:31.690Z,8.70
2018-11-25T11:26:06.525Z,8.70
2018-11-25T11:28:28.237Z,19.60
2018-11-25T11:30:56.615Z,18.87
2018-11-25T11:33:25.227Z,11.43
2018-11-25T11:35:53.612Z,19.80
2018-11-25T11:38:21.716Z,18.93
2018-11-25T11:40:49.832Z,25.03
2018-11-25T11:43:18.221Z,30.20
2018-11-25T11:45:46.626Z,22.77
2018-11-25T11:48:15.026Z,15.40
2018-11-25T11:50:43.417Z,16.00
2018-11-25T11:53:11.813Z,20.20
2018-11-25T11:55:40.209Z,14.60
2018-11-25T11:58:08.703Z,13.53
2018-11-25T12:00:37.181Z,24.67
2018-11-25T12:03:06.070Z,21.23
2018-11-25T12:05:34.445Z,20.63
2018-11-25T12:08:02.829Z,21.17
2018-11-25T12:10:31.245Z,28.07
2018-11-25T12:12:59.742Z,13.13
2018-11-25T12:15:31.024Z,18.77
2018-11-25T12:17:58.512Z,18.57
2018-11-25T12:20:28.020Z,24.50
2018-11-25T12:22:57.123Z,23.33
2018-11-25T12:25:25.600Z,18.40
2018-11-25T12:27:54.344Z,25.27
2018-11-25T12:30:23.954Z,32.63
2018-11-25T12:32:52.747Z,27.57
2018-11-25T12:35:21.141Z,22.70
2018-11-25T12:37:49.538Z,29.30
2018-11-25T12:40:19.937Z,22.57
2018-11-25T12:42:50.681Z,31.40
2018-11-25T12:45:19.461Z,32.53
2018-11-25T12:47:47.920Z,27.40
2018-11-25T12:50:17.438Z,29.83
2018-11-25T12:52:45.529Z,42.93
2018-11-25T12:55:16.190Z,54.27
2018-11-25T12:57:44.588Z,41.67
2018-11-25T13:00:22.358Z,31.90
2018-11-25T13:02:50.440Z,37.90
2018-11-25T13:05:18.853Z,50.10
2018-11-25T13:07:47.288Z,33.20
2018-11-25T13:10:15.693Z,43.23
2018-11-25T13:12:44.101Z,30.37
2018-11-25T13:15:12.502Z,36.30
2018-11-25T13:17:40.953Z,35.80
2018-11-25T13:20:13.653Z,40.97
2018-11-25T13:22:42.080Z,37.47
2018-11-25T13:25:12.506Z,30.90
2018-11-25T13:27:40.900Z,31.57
2018-11-25T13:30:22.472Z,30.37
2018-11-25T13:32:51.970Z,41.40
2018-11-25T13:35:20.382Z,30.10
2018-11-25T13:37:48.838Z,38.37
2018-11-25T13:40:17.489Z,33.63
2018-11-25T13:42:45.912Z,33.03
2018-11-25T13:45:14.452Z,29.57
2018-11-25T13:47:42.830Z,32.50
2018-11-25T13:50:12.062Z,25.13
2018-11-25T13:52:40.492Z,32.93
2018-11-25T13:55:14.420Z,30.10
2018-11-25T13:57:42.823Z,39.43
2018-11-25T14:00:47.889Z,34.10
2018-11-25T14:03:22.480Z,32.93
2018-11-25T14:05:53.353Z,29.07
2018-11-25T14:08:19.345Z,29.73
2018-11-25T14:10:47.729Z,30.73
2018-11-25T14:13:16.105Z,28.73
2018-11-25T14:15:44.505Z,30.00
2018-11-25T14:18:12.926Z,24.87
2018-11-25T14:20:41.049Z,29.37
2018-11-25T14:23:09.433Z,25.00
2018-11-25T14:25:37.837Z,33.33
2018-11-25T14:28:09.300Z,27.50
2018-11-25T14:30:37.790Z,34.93
2018-11-25T14:33:06.271Z,35.07
2018-11-25T14:35:34.758Z,38.53
2018-11-25T14:38:02.868Z,23.97
2018-11-25T14:40:31.289Z,30.00
2018-11-25T14:42:59.689Z,40.33
2018-11-25T14:45:28.093Z,33.30
2018-11-25T14:47:56.489Z,43.87
2018-11-25T14:50:24.881Z,31.00
2018-11-25T14:52:53.206Z,52.17
2018-11-25T14:55:21.654Z,29.07
2018-11-25T14:57:50.121Z,36.10
2018-11-25T15:00:19.566Z,30.37
2018-11-25T15:02:50.670Z,30.13
2018-11-25T15:05:22.197Z,34.83
2018-11-25T15:07:50.589Z,34.30
2018-11-25T15:10:19.005Z,34.20
2018-11-25T15:12:47.408Z,43.93
2018-11-25T15:15:16.645Z,34.47
2018-11-25T15:17:45.335Z,27.60
2018-11-25T15:20:14.216Z,32.67
2018-11-25T15:22:44.280Z,30.70
2018-11-25T15:25:17.865Z,37.83
2018-11-25T15:27:45.987Z,45.40
2018-11-25T15:30:14.578Z,31.23
2018-11-25T15:32:42.945Z,42.70
2018-11-25T15:35:12.527Z,26.50
2018-11-25T15:37:42.651Z,28.53
2018-11-25T15:40:29.153Z,36.63
2018-11-25T15:42:57.556Z,28.93
2018-11-25T15:45:25.945Z,21.37
2018-11-25T15:47:59.305Z,32.80
2018-11-25T15:50:28.529Z,34.97
2018-11-25T15:52:57.136Z,29.97
2018-11-25T15:55:25.646Z,31.27
2018-11-25T15:57:54.093Z,157.93
2018-11-25T16:00:23.731Z,65.93
2018-11-25T16:02:52.165Z,35.83
2018-11-25T16:05:35.378Z,27.63
2018-11-25T16:08:04.441Z,26.07
2018-11-25T16:10:32.188Z,20.77
2018-11-25T16:13:00.602Z,25.23
2018-11-25T16:15:29.257Z,31.80
2018-11-25T16:17:57.664Z,30.07
2018-11-25T16:20:27.372Z,32.13
2018-11-25T16:22:59.381Z,29.13
2018-11-25T16:25:33.510Z,37.83
2018-11-25T16:29:07.921Z,35.30
2018-11-25T16:31:36.329Z,60.97
2018-11-25T16:34:04.758Z,41.83
2018-11-25T16:36:33.385Z,40.20
2018-11-25T16:39:01.807Z,38.63
2018-11-25T16:41:30.208Z,47.40
2018-11-25T16:43:58.643Z,34.93
2018-11-25T16:46:27.025Z,39.20
2018-11-25T16:48:55.430Z,39.93
2018-11-25T16:51:23.848Z,35.30
2018-11-25T16:53:52.345Z,31.90
2018-11-25T16:56:20.733Z,26.93
2018-11-25T16:58:49.137Z,32.93
2018-11-25T17:01:17.524Z,43.13
2018-11-25T17:03:45.928Z,27.40
2018-11-25T17:06:14.743Z,28.87
2018-11-25T17:08:43.845Z,28.70
2018-11-25T17:11:12.214Z,24.33
2018-11-25T17:13:40.658Z,34.20
2018-11-25T17:16:09.376Z,26.67
2018-11-25T17:18:38.717Z,33.73
2018-11-25T17:21:07.215Z,37.07
2018-11-25T17:23:35.608Z,32.37
2018-11-25T17:26:04.038Z,31.20
2018-11-25T17:28:32.483Z,24.87
2018-11-25T17:31:00.880Z,30.70
2018-11-25T17:33:29.268Z,26.90
2018-11-25T17:35:57.380Z,29.97
2018-11-25T17:38:25.783Z,32.90
2018-11-25T17:40:54.181Z,24.97
2018-11-25T17:43:23.510Z,31.17
2018-11-25T17:45:51.922Z,25.03
2018-11-25T17:48:20.375Z,26.47
2018-11-25T17:50:48.757Z,24.60
2018-11-25T17:53:20.894Z,31.90
2018-11-25T17:55:45.720Z,27.40
2018-11-25T17:58:14.116Z,26.13
2018-11-25T18:00:50.172Z,28.80
2018-11-25T18:03:21.921Z,24.30
2018-11-25T18:05:50.343Z,20.03
2018-11-25T18:08:18.741Z,24.00
2018-11-25T18:10:47.117Z,29.73
2018-11-25T18:13:16.715Z,26.77
2018-11-25T18:15:45.129Z,26.27
2018-11-25T18:18:15.382Z,27.93
2018-11-25T18:20:47.714Z,30.67
2018-11-25T18:23:16.259Z,27.00
2018-11-25T18:25:44.363Z,25.37
2018-11-25T18:28:12.767Z,26.87
2018-11-25T18:30:41.157Z,23.77
2018-11-25T18:33:09.557Z,22.10
2018-11-25T18:35:37.973Z,25.53
2018-11-25T18:38:07.159Z,17.10
2018-11-25T18:40:35.593Z,23.90
2018-11-25T18:43:04.360Z,23.30
2018-11-25T18:45:32.755Z,23.17
2018-11-25T18:48:01.152Z,24.03
2018-11-25T18:50:29.589Z,24.63
2018-11-25T18:52:57.693Z,18.97
2018-11-25T18:55:24.981Z,25.33
2018-11-25T18:57:53.378Z,26.70
2018-11-25T19:00:31.905Z,26.63
2018-11-25T19:03:00.398Z,23.60
2018-11-25T19:05:28.777Z,28.03
2018-11-25T19:07:57.197Z,27.57
2018-11-25T19:10:25.589Z,26.90
2018-11-25T19:12:53.990Z,23.30
2018-11-25T19:15:22.395Z,21.70
2018-11-25T19:17:50.793Z,21.97
2018-11-25T19:20:26.336Z,24.07
2018-11-25T19:22:56.230Z,22.93
2018-11-25T19:25:24.620Z,25.40
2018-11-25T19:27:53.838Z,26.40
2018-11-25T19:30:26.677Z,27.40
2018-11-25T19:32:50.988Z,24.83
2018-11-25T19:35:20.698Z,22.30
2018-11-25T19:37:51.018Z,27.00
2018-11-25T19:40:22.113Z,21.70
2018-11-25T19:42:50.840Z,23.93
2018-11-25T19:45:25.616Z,24.67
2018-11-25T19:47:54.617Z,28.63
2018-11-25T19:50:23.689Z,21.47
2018-11-25T19:52:52.089Z,22.67
2018-11-25T19:55:21.692Z,18.23
2018-11-25T19:57:49.013Z,21.73
2018-11-25T20:00:21.825Z,22.90
2018-11-25T20:02:50.205Z,22.57
2018-11-25T20:05:18.635Z,24.90
2018-11-25T20:07:47.115Z,17.60
2018-11-25T20:10:17.985Z,18.90
2018-11-25T20:12:46.668Z,20.40
2018-11-25T20:15:16.181Z,16.83
2018-11-25T20:17:53.736Z,15.87
2018-11-25T20:20:15.073Z,16.53
2018-11-25T20:22:43.613Z,20.53
2018-11-25T20:25:12.758Z,16.10
2018-11-25T20:27:42.556Z,18.27
2018-11-25T20:30:12.133Z,15.83
2018-11-25T20:32:45.837Z,16.90
2018-11-25T20:35:14.259Z,15.23
2018-11-25T20:37:47.989Z,12.70
2018-11-25T20:40:16.431Z,14.10
2018-11-25T20:42:44.830Z,16.67
2018-11-25T20:45:19.638Z,9.10
2018-11-25T20:47:48.029Z,12.87
2018-11-25T20:50:16.421Z,13.30
2018-11-25T20:52:50.108Z,9.20
2018-11-25T20:55:18.544Z,11.70
2018-11-25T20:57:46.935Z,11.20
2018-11-25T21:00:17.637Z,9.93
2018-11-25T21:02:46.020Z,10.53
2018-11-25T21:05:15.235Z,12.93
2018-11-25T21:07:43.614Z,9.53
2018-11-25T21:10:13.401Z,12.13
2018-11-25T21:12:41.869Z,10.07
2018-11-25T21:15:11.033Z,11.40
2018-11-25T21:17:39.839Z,12.53
2018-11-25T21:20:10.759Z,10.87
2018-11-25T21:22:39.138Z,11.07
2018-11-25T21:25:10.233Z,11.13
2018-11-25T21:27:38.621Z,14.67
2018-11-25T21:30:13.354Z,13.80
2018-11-25T21:32:41.781Z,12.13
2018-11-25T21:35:11.357Z,13.60
2018-11-25T21:37:39.733Z,11.40
2018-11-25T21:40:13.292Z,11.80
2018-11-25T21:42:41.692Z,13.37
2018-11-25T21:45:11.537Z,14.27
2018-11-25T21:47:39.922Z,11.57
2018-11-25T21:50:10.686Z,18.53
2018-11-25T21:52:39.145Z,11.93
2018-11-25T21:55:11.025Z,15.20
2018-11-25T21:57:39.429Z,12.73
2018-11-25T22:00:12.061Z,16.57
2018-11-25T22:02:40.557Z,11.37
2018-11-25T22:05:10.195Z,15.00
2018-11-25T22:07:38.618Z,18.20
2018-11-25T22:10:10.405Z,11.73
2018-11-25T22:12:39.515Z,13.53
2018-11-25T22:15:09.624Z,13.10
2018-11-25T22:17:38.016Z,16.00
2018-11-25T22:20:08.197Z,15.63
2018-11-25T22:22:36.347Z,13.63
2018-11-25T22:25:07.288Z,11.43
2018-11-25T22:27:35.689Z,15.33
2018-11-25T22:30:04.692Z,12.63
2018-11-25T22:32:33.137Z,10.20
2018-11-25T22:35:01.706Z,13.67
2018-11-25T22:37:30.103Z,13.17
2018-11-25T22:39:58.481Z,9.27
2018-11-25T22:42:26.873Z,11.70
2018-11-25T22:44:55.249Z,9.00
2018-11-25T22:47:23.630Z,12.73
2018-11-25T22:49:52.003Z,15.67
2018-11-25T22:52:20.401Z,11.70
2018-11-25T22:54:48.764Z,11.80
2018-11-25T22:57:17.149Z,14.97
2018-11-25T22:59:45.521Z,14.13
2018-11-25T23:02:14.006Z,14.83
2018-11-25T23:04:53.701Z,12.90
2018-11-25T23:07:22.080Z,16.27
2018-11-25T23:09:50.462Z,14.10
2018-11-25T23:12:18.849Z,11.97
2018-11-25T23:14:47.234Z,18.20
2018-11-25T23:17:15.644Z,12.30
2018-11-25T23:19:44.033Z,10.37
2018-11-25T23:22:12.443Z,12.87
2018-11-25T23:24:40.821Z,12.77
2018-11-25T23:27:09.205Z,13.43
2018-11-25T23:29:37.598Z,13.30
2018-11-25T23:32:06.221Z,11.17
2018-11-25T23:34:34.605Z,11.53
2018-11-25T23:37:02.989Z,12.50
2018-11-25T23:39:31.089Z,14.40
2018-11-25T23:41:59.474Z,17.97
2018-11-25T23:44:27.856Z,13.33
2018-11-25T23:46:56.293Z,13.63
2018-11-25T23:49:24.668Z,11.97
2018-11-25T23:51:53.167Z,11.40
2018-11-25T23:54:21.573Z,11.67
2018-11-25T23:56:49.956Z,16.50
2018-11-25T23:59:18.344Z,11.73
